Ortonville, MN

8:42 PM CST on February 07, 2016 (GMT -0600)
Ortonville Municipal-Martinson | | Change Station
CLOSE
Current Station
Airport
Location: Ortonville,
Elevation: 1099 ft
Nearby Weather Stations
Active Advisory: Winter Weather Advisory

Elev 1099 ft 45.31 °N, 96.42 °W | Updated 9 minutes ago

Light Snow
Light Snow
19 °F
Feels Like 1 °F
N
29
Wind Variable Wind from NNW
Gusts 37 mph

Today
High -- | Low -- °F
--% Chance of Precip.
Yesterday
High -- | Low -- °F
Precip. -- in
Pressure 29.93 in
Visibility 4.0 miles
Clouds Scattered Clouds 2400 ft
Mostly Cloudy 3900 ft
Overcast 5000 ft
Windchill 1 °F
Dew Point 14 °F
Humidity 80%
Rainfall 0.00 in
Snow Depth Not available.
7:39 AM 5:40 PM
Waning Crescent, 0% visible
METAR KVVV 080233Z AUTO 33025G32KT 4SM -SN SCT024 BKN039 OVC050 M07/M10 A2993 RMK AO2
Pressure 29.93 in
Visibility 4.0 miles
Clouds Scattered Clouds 2400 ft
Mostly Cloudy 3900 ft
Overcast 5000 ft
Windchill 1 °F
Dew Point 14 °F
Humidity 80%
Rainfall 0.00 in
Snow Depth Not available.
7:39 AM 5:40 PM
Waning Crescent, 0% visible
METAR KVVV 080233Z AUTO 33025G32KT 4SM -SN SCT024 BKN039 OVC050 M07/M10 A2993 RMK AO2

10-Day Weather Forecast

Almanac

Astronomy

Feb. 07, 2016 Rise Set
Actual Time
Civil Twilight
Nautical Twilight
Astronomical Twilight
Moon
Length of Visible Light
Length of Day
Tomorrow will be .
, % of the Moon is Illuminated

Today's Extremes

State Highs State Lows

Community

WunderPhotos

Upload Photos

1,891,373 photos uploaded!

WunderBlog® & News

Nearby

Air Quality

  Air Quality AQ Index Pollutant
Not available.

Snow Depth

Station Depth Elevation

Earthquake Activity

City Distance Mag. Time & Date
Minimum magnitude displayed is 2.5.

Coastal Water Temperatures

Place Temperature

Stations

Nearby Weather Stations

Station Location Temp. Windchill Dew Point Humidity Wind Precip. Elev Updated Type
                   

Watches & Warnings

Winter Weather Advisory
Issued: 2:54 PM CST Feb. 7, 2016 – National Weather Service

... Winter Weather Advisory in effect until 6 am CST Monday...
... Blizzard Warning is cancelled...

The National Weather Service in Aberdeen has issued a Winter
Weather Advisory for blowing snow... which is in effect until 6 am
CST Monday. The Blizzard Warning has been cancelled.

* Expect snow to continue... diminishing around 6 am Monday.

* Additional snow accumulations of up to 1 inch are expected.

* Look for reduced visibilities at times. Damage to trees and
power lines is possible

* plan on slippery Road conditions... including during the
morning commute on Monday.

Precautionary/preparedness actions...

A Winter Weather Advisory for snow means periods of snow will
cause travel difficulties. Be prepared for snow covered roads and
limited visibilities... and use caution while driving. The latest
Road conditions for the state you are calling from can be obtained
by calling 5 1 1.